TOURFACTS.DK  
Stats and Facts from Tour de France.

Tour de France 2018 starts in 12 days
  Riders   Stages   Teams   Summits   Yearly  


 
Search by year

After 2017 - Stage 21:
 14824 starters.
  5132 different riders.
  639 teams.
  2232 stages.
  456 restdays.
  439589.60 km.
  5653 abandonnees.


Top 3
GC
Christopher Froome86:20:55
Rigoberto Urán86:21:49
Romain Bardet86:23:15
Climb
Warren Barguil169 pt.
Primoz Roglic80 pt.
Thomas De Gendt64 pt.
Sprint
Michael Matthews359 pt.
André Greipel234 pt.
Edvald Boasson Hagen220 pt.
Youth
Simon Yates86:27:09
Louis Meintjes86:29:15
Emanuel Buchmann86:54:16
Facts from Tour de France 1949
  |   Stages.  |   Stage winners.  |   Days in yellow  |   Average speed.  |   Route.  |   Teams.  |   All riders.  |   Rookies.  |  

  |   Withdrawls.  |   GC.  |   Polka  |   Green  |   White  |   Summits. (In tour)  |   Miscellaneous.  |  

Stage 14 on 15 - 07 - 1949
         Owning:    Vittorio Magni    
Pick a stage:  1 2 3 4 5 6 7 8 9 10 11 12 13 14 15 16 17 18 19 20 21
  NîmesMarseille | Dist: 199.00 km.

Average speed for all riders in stage:  31,356 km./hr.
    Place:Name:Team:Time:Km/h:
LUXJean GoldschmitLUXLuxembourg06:17:08  +  00:00:00=31,660 
FRAJean BlancFRACenter-South West06:18:59  +  00:01:51=31,505 
FRAJean RobicFRAWest-North06:19:48  +  00:02:40=31,438 
4 ITAGino SciardisITAItaly06:19:48  +  00:02:40=31,438 
5 BELStan OckersBELBelgium06:19:48  +  00:02:40=31,438 
6 BELMarcel HendrickxBELAiglons Belges06:19:48  +  00:02:40=31,438 
7 FRAAlbert DolhatsFRACenter-South West06:19:48  +  00:02:40=31,438 
8 BELMarcel KintBELBelgium06:19:48  +  00:02:40=31,438 
9 SUIFerdi KüblerCHESwitzerland06:19:48  +  00:02:40=31,438 
10 FRAEdouard MullerFRAIle De France06:19:48  +  00:02:40=31,438 
11 ITAGiuseppe TaccaFRAIle De France06:19:48  +  00:02:40=31,438 
12 FRAJacques MarinelliFRAIle De France06:19:48  +  00:02:40=31,438 
13 FRAEmile IdéeFRAIle De France06:19:48  +  00:02:40=31,438 
14 BELJacques GeusBELAiglons Belges06:19:48  +  00:02:40=31,438 
15 BELMarcel DupontBELAiglons Belges06:19:48  +  00:02:40=31,438 
16 BELMarcel De MulderBELAiglons Belges06:19:48  +  00:02:40=31,438 
17 ITAArmando PeverelliITACadetti Italiens06:19:48  +  00:02:40=31,438 
18 ITASylvio PedroniITACadetti Italiens06:19:48  +  00:02:40=31,438 
19 FRAPierre CoganFRAWest-North06:19:48  +  00:02:40=31,438 
20 FRAJean-Marie GoasmatFRAWest-North06:19:48  +  00:02:40=31,438 
21 ITANello LaurediFRASouth-East06:19:48  +  00:02:40=31,438 
22 FRAPaul GiguetFRASouth-East06:19:48  +  00:02:40=31,438 
23 ITAÉdouard FachleitnerFRASouth-East06:19:48  +  00:02:40=31,438 
24 ITAAdolphe DeleddaFRASouth-East06:19:48  +  00:02:40=31,438 
25 ITAFermo CamelliniFRASouth-East06:19:48  +  00:02:40=31,438 
26 SUIPierre BrambillaFRASouth-East06:19:48  +  00:02:40=31,438 
27 FRAAntonin RollandFRASouth-East06:19:48  +  00:02:40=31,438 
28 FRAPaul PineauFRACenter-South West06:19:48  +  00:02:40=31,438 
29 FRAHenri MassalFRACenter-South West06:19:48  +  00:02:40=31,438 
30 FRARoger LevequeFRACenter-South West06:19:48  +  00:02:40=31,438 
31 GERCésar MarcelakFRAWest-North06:19:48  +  00:02:40=31,438 
32 FRAAndre MahéFRAWest-North06:19:48  +  00:02:40=31,438 
33 ITAAlfredo MartiniITACadetti Italiens06:19:48  +  00:02:40=31,438 
34 ITAVittorio MagniITACadetti Italiens06:19:48  +  00:02:40=31,438 
35 ITAGiuseppe AusendaITACadetti Italiens06:19:48  +  00:02:40=31,438 
36 BELRik Van SteenbergenBELBelgium06:19:48  +  00:02:40=31,438 
37 BELBriek SchotteBELBelgium06:19:48  +  00:02:40=31,438 
38 ITAGino BartaliITAItaly06:19:48  +  00:02:40=31,438 
39 BELRoger LambrechtBELBelgium06:19:48  +  00:02:40=31,438 
40 BELDésiré KeteleerBELBelgium06:19:48  +  00:02:40=31,438 
41 ITAVincenzo RosselloITAItaly06:19:48  +  00:02:40=31,438 
42 ITALuciano PezziITAItaly06:19:48  +  00:02:40=31,438 
43 ITABruno PasquiniITAItaly06:19:48  +  00:02:40=31,438 
44 ITAFausto CoppiITAItaly06:19:48  +  00:02:40=31,438 
45 ITASerifano BiagioniITAItaly06:19:48  +  00:02:40=31,438 
46 FRARobert ChapatteFRAFrance06:19:48  +  00:02:40=31,438 
47 FRALouis DeprezFRAFrance06:19:48  +  00:02:40=31,438 
48 FRARené ViettoFRAFrance06:19:48  +  00:02:40=31,438 
49 FRAJean-Apotre LazaridesFRAFrance06:19:48  +  00:02:40=31,438 
50 LUXJean KirchenLUXLuxembourg06:19:48  +  00:02:40=31,438 
51 FRALucien LazaridesFRAFrance06:19:48  +  00:02:40=31,438 
52 LUXJean DiederichLUXLuxembourg06:19:48  +  00:02:40=31,438 
53 SUIGottfried WeilenmannCHESwitzerland06:19:48  +  00:02:40=31,438 
54 FRAAndré BruléFRAIle De France06:19:48  +  00:02:40=31,438 
55 FRALucien TeisseireFRAFrance06:19:48  +  00:02:40=31,438 
56 FRAGeorges RamouluxFRACenter-South West06:20:57  +  00:03:49=31,343 
57 MARCustodio Dos ReisFRACenter-South West06:22:59  +  00:05:51=31,176 
58 BELJoseph VerhaertBELAiglons Belges06:22:59  +  00:05:51=31,176 
59 FRAGeorges MartinFRASouth-East06:22:59  +  00:05:51=31,176 
60 SUIGeorges AeschlimannCHESwitzerland06:22:59  +  00:05:51=31,176 
61 ITAMario RicciITAItaly06:23:50  +  00:06:42=31,107 
62 ITAAngelo BrignoleITAItaly06:24:49  +  00:07:41=31,028 
63 ITAEttore MilanoITAItaly06:24:49  +  00:07:41=31,028 
64 FRARoger Le NizerhyFRAWest-North06:25:52  +  00:08:44=30,943 
65 BELFlorent MathieuBELBelgium06:25:52  +  00:08:44=30,943 
66 FRARaphaël GeminianiFRAFrance06:30:05  +  00:12:57=30,609 
67 ITAGuido De SantiITAItaly06:30:05  +  00:12:57=30,609 
68 ITAGiovanni CorrieriITAItaly06:30:05  +  00:12:57=30,609 


Todays birthdays.

1875  Jules Sales
1888  Leon Lannoy
1922  Henri Surbatis
1932  Ferdinand Devèze
1939  Dieter Puschel
1961  Gerhard Zadrobilek
1964  Javier Duch
1965  Clarence Knickman
1968  Michael Sandstød
1986  Simon Spilak




Visits: